sensor_id;sensor_type;location;lat;lon;timestamp;temperature;humidity
71396;DHT22;59888;55.814;37.132;2023-04-06T00:01:10;6.15;60.73
71396;DHT22;59888;55.814;37.132;2023-04-06T00:03:37;6.11;61.43
71396;DHT22;59888;55.814;37.132;2023-04-06T00:06:03;6.08;60.98
71396;DHT22;59888;55.814;37.132;2023-04-06T00:08:29;6.05;61.13
71396;DHT22;59888;55.814;37.132;2023-04-06T00:10:55;6.02;61.02
71396;DHT22;59888;55.814;37.132;2023-04-06T00:13:21;6.00;61.39
71396;DHT22;59888;55.814;37.132;2023-04-06T00:15:47;6.01;61.10
71396;DHT22;59888;55.814;37.132;2023-04-06T00:18:13;6.00;61.34
71396;DHT22;59888;55.814;37.132;2023-04-06T00:20:40;5.99;60.96
71396;DHT22;59888;55.814;37.132;2023-04-06T00:23:06;5.97;61.20
71396;DHT22;59888;55.814;37.132;2023-04-06T00:25:31;5.93;61.24
71396;DHT22;59888;55.814;37.132;2023-04-06T00:27:57;5.92;61.31
71396;DHT22;59888;55.814;37.132;2023-04-06T00:30:23;5.91;61.20
71396;DHT22;59888;55.814;37.132;2023-04-06T00:32:50;5.90;61.12
71396;DHT22;59888;55.814;37.132;2023-04-06T00:35:15;5.89;61.11
71396;DHT22;59888;55.814;37.132;2023-04-06T00:37:42;5.87;61.51
71396;DHT22;59888;55.814;37.132;2023-04-06T00:40:08;5.82;60.93
71396;DHT22;59888;55.814;37.132;2023-04-06T00:42:34;5.80;61.04
71396;DHT22;59888;55.814;37.132;2023-04-06T00:45:01;5.80;61.79
71396;DHT22;59888;55.814;37.132;2023-04-06T00:47:28;5.76;61.66
71396;DHT22;59888;55.814;37.132;2023-04-06T00:49:54;5.71;61.65
71396;DHT22;59888;55.814;37.132;2023-04-06T00:52:21;5.69;61.72
71396;DHT22;59888;55.814;37.132;2023-04-06T00:54:48;5.67;61.57
71396;DHT22;59888;55.814;37.132;2023-04-06T00:57:16;5.66;61.42
71396;DHT22;59888;55.814;37.132;2023-04-06T00:59:43;5.64;61.63
71396;DHT22;59888;55.814;37.132;2023-04-06T01:02:11;5.63;61.50
71396;DHT22;59888;55.814;37.132;2023-04-06T01:04:44;5.59;62.05
71396;DHT22;59888;55.814;37.132;2023-04-06T01:07:18;5.57;61.78
71396;DHT22;59888;55.814;37.132;2023-04-06T01:09:58;5.54;61.73
71396;DHT22;59888;55.814;37.132;2023-04-06T01:12:29;5.54;61.82
71396;DHT22;59888;55.814;37.132;2023-04-06T01:14:56;5.51;61.41
71396;DHT22;59888;55.814;37.132;2023-04-06T01:17:23;5.50;61.74
71396;DHT22;59888;55.814;37.132;2023-04-06T01:19:50;5.50;61.90
71396;DHT22;59888;55.814;37.132;2023-04-06T01:22:24;5.49;62.08
71396;DHT22;59888;55.814;37.132;2023-04-06T01:24:57;5.49;61.64
71396;DHT22;59888;55.814;37.132;2023-04-06T01:27:32;5.46;62.28
71396;DHT22;59888;55.814;37.132;2023-04-06T01:30:11;5.41;61.79
71396;DHT22;59888;55.814;37.132;2023-04-06T01:32:51;5.41;61.93
71396;DHT22;59888;55.814;37.132;2023-04-06T01:35:26;5.40;61.83
71396;DHT22;59888;55.814;37.132;2023-04-06T01:38:01;5.41;61.95
71396;DHT22;59888;55.814;37.132;2023-04-06T01:40:31;5.38;61.84
71396;DHT22;59888;55.814;37.132;2023-04-06T01:42:56;5.37;62.04
71396;DHT22;59888;55.814;37.132;2023-04-06T01:45:32;5.34;62.24
71396;DHT22;59888;55.814;37.132;2023-04-06T01:48:07;5.34;62.41
71396;DHT22;59888;55.814;37.132;2023-04-06T01:50:33;5.32;62.44
71396;DHT22;59888;55.814;37.132;2023-04-06T01:52:59;5.28;61.76
71396;DHT22;59888;55.814;37.132;2023-04-06T01:55:27;5.30;62.22
71396;DHT22;59888;55.814;37.132;2023-04-06T01:58:12;5.26;63.01
71396;DHT22;59888;55.814;37.132;2023-04-06T02:00:41;5.24;62.50
71396;DHT22;59888;55.814;37.132;2023-04-06T02:03:08;5.24;61.99
71396;DHT22;59888;55.814;37.132;2023-04-06T02:05:34;5.24;61.80
71396;DHT22;59888;55.814;37.132;2023-04-06T02:08:13;5.21;62.55
71396;DHT22;59888;55.814;37.132;2023-04-06T02:10:39;5.20;62.10
71396;DHT22;59888;55.814;37.132;2023-04-06T02:13:15;5.17;62.28
71396;DHT22;59888;55.814;37.132;2023-04-06T02:15:47;5.16;62.42
71396;DHT22;59888;55.814;37.132;2023-04-06T02:18:12;5.15;62.42
71396;DHT22;59888;55.814;37.132;2023-04-06T02:20:40;5.13;62.21
71396;DHT22;59888;55.814;37.132;2023-04-06T02:23:07;5.11;62.40
71396;DHT22;59888;55.814;37.132;2023-04-06T02:25:32;5.10;62.34
71396;DHT22;59888;55.814;37.132;2023-04-06T02:28:00;5.09;62.34
71396;DHT22;59888;55.814;37.132;2023-04-06T02:30:28;5.09;62.22
71396;DHT22;59888;55.814;37.132;2023-04-06T02:32:55;5.09;62.25
71396;DHT22;59888;55.814;37.132;2023-04-06T02:35:22;5.09;62.21
71396;DHT22;59888;55.814;37.132;2023-04-06T02:37:52;5.09;62.35
71396;DHT22;59888;55.814;37.132;2023-04-06T02:40:19;5.09;61.89
71396;DHT22;59888;55.814;37.132;2023-04-06T02:42:45;5.08;62.12
71396;DHT22;59888;55.814;37.132;2023-04-06T02:45:13;5.05;61.89
71396;DHT22;59888;55.814;37.132;2023-04-06T02:47:43;5.05;62.24
71396;DHT22;59888;55.814;37.132;2023-04-06T02:50:11;5.05;62.44
71396;DHT22;59888;55.814;37.132;2023-04-06T02:52:44;5.03;62.05
71396;DHT22;59888;55.814;37.132;2023-04-06T02:55:10;5.04;62.27
71396;DHT22;59888;55.814;37.132;2023-04-06T02:57:37;5.04;62.12
71396;DHT22;59888;55.814;37.132;2023-04-06T03:00:07;5.05;62.32
71396;DHT22;59888;55.814;37.132;2023-04-06T03:02:38;5.05;62.24
71396;DHT22;59888;55.814;37.132;2023-04-06T03:05:08;5.06;62.47
71396;DHT22;59888;55.814;37.132;2023-04-06T03:07:38;5.05;62.21
71396;DHT22;59888;55.814;37.132;2023-04-06T03:10:08;5.07;62.14
71396;DHT22;59888;55.814;37.132;2023-04-06T03:12:34;5.09;62.19
71396;DHT22;59888;55.814;37.132;2023-04-06T03:15:16;5.12;62.12
71396;DHT22;59888;55.814;37.132;2023-04-06T03:17:47;5.13;62.15
71396;DHT22;59888;55.814;37.132;2023-04-06T03:20:31;5.13;61.96
71396;DHT22;59888;55.814;37.132;2023-04-06T03:22:58;5.19;61.97
71396;DHT22;59888;55.814;37.132;2023-04-06T03:25:28;5.21;61.63
71396;DHT22;59888;55.814;37.132;2023-04-06T03:27:59;5.24;61.91
71396;DHT22;59888;55.814;37.132;2023-04-06T03:30:26;5.30;62.11
71396;DHT22;59888;55.814;37.132;2023-04-06T03:32:52;5.34;61.95
71396;DHT22;59888;55.814;37.132;2023-04-06T03:35:20;5.36;62.02
71396;DHT22;59888;55.814;37.132;2023-04-06T03:37:46;5.38;61.12
71396;DHT22;59888;55.814;37.132;2023-04-06T03:40:12;5.42;61.79
71396;DHT22;59888;55.814;37.132;2023-04-06T03:42:38;5.49;61.87
71396;DHT22;59888;55.814;37.132;2023-04-06T03:45:10;5.52;61.75
71396;DHT22;59888;55.814;37.132;2023-04-06T03:47:42;5.57;61.64
71396;DHT22;59888;55.814;37.132;2023-04-06T03:50:08;5.61;61.11
71396;DHT22;59888;55.814;37.132;2023-04-06T03:52:35;5.64;61.41
71396;DHT22;59888;55.814;37.132;2023-04-06T03:55:02;5.70;61.89
71396;DHT22;59888;55.814;37.132;2023-04-06T03:57:28;5.76;61.46
71396;DHT22;59888;55.814;37.132;2023-04-06T03:59:57;5.80;61.49
71396;DHT22;59888;55.814;37.132;2023-04-06T04:02:25;5.90;61.18
71396;DHT22;59888;55.814;37.132;2023-04-06T04:04:51;5.94;61.25
71396;DHT22;59888;55.814;37.132;2023-04-06T04:07:17;6.02;61.57
71396;DHT22;59888;55.814;37.132;2023-04-06T04:09:43;6.07;61.38
71396;DHT22;59888;55.814;37.132;2023-04-06T04:12:10;6.13;60.86
71396;DHT22;59888;55.814;37.132;2023-04-06T04:14:36;6.19;61.00
71396;DHT22;59888;55.814;37.132;2023-04-06T04:17:02;6.27;61.10
71396;DHT22;59888;55.814;37.132;2023-04-06T04:19:28;6.33;60.81
71396;DHT22;59888;55.814;37.132;2023-04-06T04:21:55;6.40;60.69
71396;DHT22;59888;55.814;37.132;2023-04-06T04:24:29;6.46;60.60
71396;DHT22;59888;55.814;37.132;2023-04-06T04:26:55;6.56;60.44
71396;DHT22;59888;55.814;37.132;2023-04-06T04:29:23;6.63;60.23
71396;DHT22;59888;55.814;37.132;2023-04-06T04:31:50;6.74;60.10
71396;DHT22;59888;55.814;37.132;2023-04-06T04:34:18;6.84;59.90
71396;DHT22;59888;55.814;37.132;2023-04-06T04:36:46;6.94;59.92
71396;DHT22;59888;55.814;37.132;2023-04-06T04:39:21;7.00;59.64
71396;DHT22;59888;55.814;37.132;2023-04-06T04:41:55;7.04;59.53
71396;DHT22;59888;55.814;37.132;2023-04-06T04:44:21;7.13;59.25
71396;DHT22;59888;55.814;37.132;2023-04-06T04:46:48;7.18;59.30
71396;DHT22;59888;55.814;37.132;2023-04-06T04:49:15;7.29;58.99
71396;DHT22;59888;55.814;37.132;2023-04-06T04:51:42;7.37;58.99
71396;DHT22;59888;55.814;37.132;2023-04-06T04:54:16;7.45;58.83
71396;DHT22;59888;55.814;37.132;2023-04-06T04:56:42;7.56;58.66
71396;DHT22;59888;55.814;37.132;2023-04-06T04:59:24;7.67;58.51
71396;DHT22;59888;55.814;37.132;2023-04-06T05:01:57;7.75;58.22
71396;DHT22;59888;55.814;37.132;2023-04-06T05:04:32;7.82;58.05
71396;DHT22;59888;55.814;37.132;2023-04-06T05:07:08;7.96;57.84
71396;DHT22;59888;55.814;37.132;2023-04-06T05:09:36;8.09;57.67
71396;DHT22;59888;55.814;37.132;2023-04-06T05:12:03;8.17;57.18
71396;DHT22;59888;55.814;37.132;2023-04-06T05:14:34;8.26;57.06
71396;DHT22;59888;55.814;37.132;2023-04-06T05:17:02;8.45;56.84
71396;DHT22;59888;55.814;37.132;2023-04-06T05:19:29;8.53;56.71
71396;DHT22;59888;55.814;37.132;2023-04-06T05:21:56;8.65;56.41
71396;DHT22;59888;55.814;37.132;2023-04-06T05:24:23;8.73;56.19
71396;DHT22;59888;55.814;37.132;2023-04-06T05:26:49;8.82;55.76
71396;DHT22;59888;55.814;37.132;2023-04-06T05:29:21;8.90;55.68
71396;DHT22;59888;55.814;37.132;2023-04-06T05:31:47;9.01;55.56
71396;DHT22;59888;55.814;37.132;2023-04-06T05:34:13;9.06;55.20
71396;DHT22;59888;55.814;37.132;2023-04-06T05:36:39;9.06;55.26
71396;DHT22;59888;55.814;37.132;2023-04-06T05:39:15;9.12;54.94
71396;DHT22;59888;55.814;37.132;2023-04-06T05:41:49;9.23;55.03
71396;DHT22;59888;55.814;37.132;2023-04-06T05:44:18;9.36;54.91
71396;DHT22;59888;55.814;37.132;2023-04-06T05:46:49;9.42;54.68
71396;DHT22;59888;55.814;37.132;2023-04-06T05:49:16;9.50;54.61
71396;DHT22;59888;55.814;37.132;2023-04-06T05:51:42;9.61;54.24
71396;DHT22;59888;55.814;37.132;2023-04-06T05:54:08;9.71;54.11
71396;DHT22;59888;55.814;37.132;2023-04-06T05:56:34;9.84;53.86
71396;DHT22;59888;55.814;37.132;2023-04-06T05:59:01;9.94;53.68
71396;DHT22;59888;55.814;37.132;2023-04-06T06:01:29;9.98;53.39
71396;DHT22;59888;55.814;37.132;2023-04-06T06:03:55;10.08;53.46
71396;DHT22;59888;55.814;37.132;2023-04-06T06:06:24;10.19;53.19
71396;DHT22;59888;55.814;37.132;2023-04-06T06:09:13;10.29;52.94
71396;DHT22;59888;55.814;37.132;2023-04-06T06:11:46;10.38;52.69
71396;DHT22;59888;55.814;37.132;2023-04-06T06:14:15;10.44;52.09
71396;DHT22;59888;55.814;37.132;2023-04-06T06:16:42;10.48;52.53
71396;DHT22;59888;55.814;37.132;2023-04-06T06:19:11;10.65;52.37
71396;DHT22;59888;55.814;37.132;2023-04-06T06:21:38;10.70;52.14
71396;DHT22;59888;55.814;37.132;2023-04-06T06:24:06;10.82;51.98
71396;DHT22;59888;55.814;37.132;2023-04-06T06:26:32;10.92;52.06
71396;DHT22;59888;55.814;37.132;2023-04-06T06:29:01;11.02;51.60
71396;DHT22;59888;55.814;37.132;2023-04-06T06:31:27;11.07;51.34
71396;DHT22;59888;55.814;37.132;2023-04-06T06:33:54;11.15;51.08
71396;DHT22;59888;55.814;37.132;2023-04-06T06:36:20;11.26;51.37
71396;DHT22;59888;55.814;37.132;2023-04-06T06:38:46;11.27;50.85
71396;DHT22;59888;55.814;37.132;2023-04-06T06:41:15;11.33;51.08
71396;DHT22;59888;55.814;37.132;2023-04-06T06:43:41;11.34;50.21
71396;DHT22;59888;55.814;37.132;2023-04-06T06:46:10;11.32;50.36
71396;DHT22;59888;55.814;37.132;2023-04-06T06:48:40;11.43;50.66
71396;DHT22;59888;55.814;37.132;2023-04-06T06:51:06;11.45;50.40
71396;DHT22;59888;55.814;37.132;2023-04-06T06:53:32;11.53;50.45
71396;DHT22;59888;55.814;37.132;2023-04-06T06:55:58;11.61;50.28
71396;DHT22;59888;55.814;37.132;2023-04-06T06:58:23;11.62;50.21
71396;DHT22;59888;55.814;37.132;2023-04-06T07:00:49;11.68;49.77
71396;DHT22;59888;55.814;37.132;2023-04-06T07:03:15;11.71;49.84
71396;DHT22;59888;55.814;37.132;2023-04-06T07:05:46;11.78;49.71
71396;DHT22;59888;55.814;37.132;2023-04-06T07:08:23;11.87;49.79
71396;DHT22;59888;55.814;37.132;2023-04-06T07:10:50;11.98;49.40
71396;DHT22;59888;55.814;37.132;2023-04-06T07:13:18;12.05;49.64
71396;DHT22;59888;55.814;37.132;2023-04-06T07:15:50;12.14;49.54
71396;DHT22;59888;55.814;37.132;2023-04-06T07:18:16;12.17;49.00
71396;DHT22;59888;55.814;37.132;2023-04-06T07:20:42;12.20;48.44
71396;DHT22;59888;55.814;37.132;2023-04-06T07:23:08;12.28;48.66
71396;DHT22;59888;55.814;37.132;2023-04-06T07:25:34;12.35;48.52
71396;DHT22;59888;55.814;37.132;2023-04-06T07:28:02;12.45;47.20
71396;DHT22;59888;55.814;37.132;2023-04-06T07:30:29;12.52;48.64
71396;DHT22;59888;55.814;37.132;2023-04-06T07:32:55;12.66;48.44
71396;DHT22;59888;55.814;37.132;2023-04-06T07:35:23;12.76;47.77
71396;DHT22;59888;55.814;37.132;2023-04-06T07:37:50;12.81;48.08
71396;DHT22;59888;55.814;37.132;2023-04-06T07:40:16;12.93;47.80
71396;DHT22;59888;55.814;37.132;2023-04-06T07:42:42;13.04;48.24
71396;DHT22;59888;55.814;37.132;2023-04-06T07:45:09;13.15;47.91
71396;DHT22;59888;55.814;37.132;2023-04-06T07:47:36;13.23;47.83
71396;DHT22;59888;55.814;37.132;2023-04-06T07:50:02;13.37;47.52
71396;DHT22;59888;55.814;37.132;2023-04-06T07:52:29;13.47;47.23
71396;DHT22;59888;55.814;37.132;2023-04-06T07:54:56;13.49;46.71
71396;DHT22;59888;55.814;37.132;2023-04-06T07:57:22;13.53;46.44
71396;DHT22;59888;55.814;37.132;2023-04-06T07:59:48;13.60;46.51
71396;DHT22;59888;55.814;37.132;2023-04-06T08:02:13;13.68;46.32
71396;DHT22;59888;55.814;37.132;2023-04-06T08:04:40;13.81;45.33
71396;DHT22;59888;55.814;37.132;2023-04-06T08:07:06;13.88;45.50
71396;DHT22;59888;55.814;37.132;2023-04-06T08:09:32;13.91;45.57
71396;DHT22;59888;55.814;37.132;2023-04-06T08:11:58;14.00;46.02
71396;DHT22;59888;55.814;37.132;2023-04-06T08:14:24;14.10;44.64
71396;DHT22;59888;55.814;37.132;2023-04-06T08:16:50;14.20;45.41
71396;DHT22;59888;55.814;37.132;2023-04-06T08:19:16;14.33;45.22
71396;DHT22;59888;55.814;37.132;2023-04-06T08:21:45;14.47;44.93
71396;DHT22;59888;55.814;37.132;2023-04-06T08:24:12;14.48;45.21
71396;DHT22;59888;55.814;37.132;2023-04-06T08:26:37;14.50;43.93
71396;DHT22;59888;55.814;37.132;2023-04-06T08:29:03;14.48;44.06
71396;DHT22;59888;55.814;37.132;2023-04-06T08:31:30;14.51;44.13
71396;DHT22;59888;55.814;37.132;2023-04-06T08:33:56;14.55;44.17
71396;DHT22;59888;55.814;37.132;2023-04-06T08:36:22;14.60;44.44
71396;DHT22;59888;55.814;37.132;2023-04-06T08:38:48;14.68;43.63
71396;DHT22;59888;55.814;37.132;2023-04-06T08:41:16;14.72;44.09
71396;DHT22;59888;55.814;37.132;2023-04-06T08:44:03;14.77;42.76
71396;DHT22;59888;55.814;37.132;2023-04-06T08:46:30;14.84;43.76
71396;DHT22;59888;55.814;37.132;2023-04-06T08:49:01;14.95;42.72
71396;DHT22;59888;55.814;37.132;2023-04-06T08:51:28;14.96;43.06
71396;DHT22;59888;55.814;37.132;2023-04-06T08:53:57;15.02;43.09
71396;DHT22;59888;55.814;37.132;2023-04-06T08:56:25;15.02;42.61
71396;DHT22;59888;55.814;37.132;2023-04-06T08:58:56;15.04;41.37
71396;DHT22;59888;55.814;37.132;2023-04-06T09:01:25;15.13;42.25
71396;DHT22;59888;55.814;37.132;2023-04-06T09:03:59;15.21;42.03
71396;DHT22;59888;55.814;37.132;2023-04-06T09:06:30;15.27;41.41
71396;DHT22;59888;55.814;37.132;2023-04-06T09:08:56;15.33;41.84
71396;DHT22;59888;55.814;37.132;2023-04-06T09:11:23;15.47;41.76
71396;DHT22;59888;55.814;37.132;2023-04-06T09:13:50;15.51;40.65
71396;DHT22;59888;55.814;37.132;2023-04-06T09:16:17;15.53;41.10
71396;DHT22;59888;55.814;37.132;2023-04-06T09:18:43;15.51;40.23
71396;DHT22;59888;55.814;37.132;2023-04-06T09:21:09;15.52;41.17
71396;DHT22;59888;55.814;37.132;2023-04-06T09:23:36;15.57;41.27
71396;DHT22;59888;55.814;37.132;2023-04-06T09:26:13;15.63;40.41
71396;DHT22;59888;55.814;37.132;2023-04-06T09:31:08;15.70;39.68
71396;DHT22;59888;55.814;37.132;2023-04-06T09:33:40;15.72;39.36
71396;DHT22;59888;55.814;37.132;2023-04-06T09:36:07;15.72;38.25
71396;DHT22;59888;55.814;37.132;2023-04-06T09:38:39;15.72;39.32
71396;DHT22;59888;55.814;37.132;2023-04-06T09:41:27;15.81;39.01
71396;DHT22;59888;55.814;37.132;2023-04-06T09:44:07;15.90;38.11
71396;DHT22;59888;55.814;37.132;2023-04-06T09:46:38;16.01;39.83
71396;DHT22;59888;55.814;37.132;2023-04-06T09:49:07;16.15;38.36
71396;DHT22;59888;55.814;37.132;2023-04-06T09:51:38;16.28;39.33
71396;DHT22;59888;55.814;37.132;2023-04-06T09:54:04;16.33;39.06
71396;DHT22;59888;55.814;37.132;2023-04-06T09:56:39;16.36;37.72
71396;DHT22;59888;55.814;37.132;2023-04-06T09:59:13;16.40;38.27
71396;DHT22;59888;55.814;37.132;2023-04-06T10:01:39;16.51;38.59
71396;DHT22;59888;55.814;37.132;2023-04-06T10:04:36;16.56;37.15
71396;DHT22;59888;55.814;37.132;2023-04-06T10:07:06;16.61;37.72
71396;DHT22;59888;55.814;37.132;2023-04-06T10:09:32;16.62;38.19
71396;DHT22;59888;55.814;37.132;2023-04-06T10:12:07;16.70;37.77
71396;DHT22;59888;55.814;37.132;2023-04-06T10:14:34;16.76;38.08
71396;DHT22;59888;55.814;37.132;2023-04-06T10:17:04;16.82;37.47
71396;DHT22;59888;55.814;37.132;2023-04-06T10:19:47;16.91;37.05
71396;DHT22;59888;55.814;37.132;2023-04-06T10:22:51;16.95;36.31
71396;DHT22;59888;55.814;37.132;2023-04-06T10:25:27;17.01;36.82
71396;DHT22;59888;55.814;37.132;2023-04-06T10:28:08;17.06;35.37
71396;DHT22;59888;55.814;37.132;2023-04-06T10:30:34;17.16;36.97
71396;DHT22;59888;55.814;37.132;2023-04-06T10:33:01;17.28;36.95
71396;DHT22;59888;55.814;37.132;2023-04-06T10:35:37;17.38;35.54
71396;DHT22;59888;55.814;37.132;2023-04-06T10:38:06;17.38;36.07
71396;DHT22;59888;55.814;37.132;2023-04-06T10:40:36;17.33;35.52
71396;DHT22;59888;55.814;37.132;2023-04-06T10:43:13;17.30;36.55
71396;DHT22;59888;55.814;37.132;2023-04-06T10:45:40;17.29;35.50
71396;DHT22;59888;55.814;37.132;2023-04-06T10:48:16;17.23;31.99
71396;DHT22;59888;55.814;37.132;2023-04-06T10:50:50;17.25;35.36
71396;DHT22;59888;55.814;37.132;2023-04-06T10:53:23;17.28;33.97
71396;DHT22;59888;55.814;37.132;2023-04-06T10:55:51;17.24;35.12
71396;DHT22;59888;55.814;37.132;2023-04-06T10:58:17;17.29;35.66
71396;DHT22;59888;55.814;37.132;2023-04-06T11:00:45;17.36;35.38
71396;DHT22;59888;55.814;37.132;2023-04-06T11:03:11;17.46;35.27
71396;DHT22;59888;55.814;37.132;2023-04-06T11:05:36;17.47;35.19
71396;DHT22;59888;55.814;37.132;2023-04-06T11:08:02;17.49;34.29
71396;DHT22;59888;55.814;37.132;2023-04-06T11:10:28;17.56;34.76
71396;DHT22;59888;55.814;37.132;2023-04-06T11:12:56;17.53;33.76
71396;DHT22;59888;55.814;37.132;2023-04-06T11:15:22;17.55;33.68
71396;DHT22;59888;55.814;37.132;2023-04-06T11:17:49;17.59;33.76
71396;DHT22;59888;55.814;37.132;2023-04-06T11:20:15;17.66;34.35
71396;DHT22;59888;55.814;37.132;2023-04-06T11:22:53;17.64;31.81
71396;DHT22;59888;55.814;37.132;2023-04-06T11:25:19;17.69;34.96
71396;DHT22;59888;55.814;37.132;2023-04-06T11:27:46;17.76;34.25
71396;DHT22;59888;55.814;37.132;2023-04-06T11:30:13;17.85;34.39
71396;DHT22;59888;55.814;37.132;2023-04-06T11:32:40;17.89;34.20
71396;DHT22;59888;55.814;37.132;2023-04-06T11:35:11;17.95;34.66
71396;DHT22;59888;55.814;37.132;2023-04-06T11:37:37;17.99;34.11
71396;DHT22;59888;55.814;37.132;2023-04-06T11:40:03;18.06;33.34
71396;DHT22;59888;55.814;37.132;2023-04-06T11:42:29;18.07;33.13
71396;DHT22;59888;55.814;37.132;2023-04-06T11:44:57;18.05;33.77
71396;DHT22;59888;55.814;37.132;2023-04-06T11:47:36;18.00;33.44
71396;DHT22;59888;55.814;37.132;2023-04-06T11:50:10;18.03;33.53
71396;DHT22;59888;55.814;37.132;2023-04-06T11:52:38;18.12;33.92
71396;DHT22;59888;55.814;37.132;2023-04-06T11:55:18;18.21;33.25
71396;DHT22;59888;55.814;37.132;2023-04-06T11:57:44;18.21;33.68
71396;DHT22;59888;55.814;37.132;2023-04-06T12:00:11;18.21;32.29
71396;DHT22;59888;55.814;37.132;2023-04-06T12:02:38;18.24;32.19
71396;DHT22;59888;55.814;37.132;2023-04-06T12:05:05;18.22;32.39
71396;DHT22;59888;55.814;37.132;2023-04-06T12:07:33;18.20;33.30
71396;DHT22;59888;55.814;37.132;2023-04-06T12:10:01;18.21;30.84
71396;DHT22;59888;55.814;37.132;2023-04-06T12:12:28;18.28;32.82
71396;DHT22;59888;55.814;37.132;2023-04-06T12:14:55;18.36;32.67
71396;DHT22;59888;55.814;37.132;2023-04-06T12:17:22;18.38;32.68
71396;DHT22;59888;55.814;37.132;2023-04-06T12:19:49;18.44;32.80
71396;DHT22;59888;55.814;37.132;2023-04-06T12:22:15;18.52;32.64
71396;DHT22;59888;55.814;37.132;2023-04-06T12:24:42;18.51;32.87
71396;DHT22;59888;55.814;37.132;2023-04-06T12:27:07;18.52;32.85
71396;DHT22;59888;55.814;37.132;2023-04-06T12:29:35;18.53;32.77
71396;DHT22;59888;55.814;37.132;2023-04-06T12:32:01;18.56;31.36
71396;DHT22;59888;55.814;37.132;2023-04-06T12:34:27;18.69;32.67
71396;DHT22;59888;55.814;37.132;2023-04-06T12:36:54;18.84;32.82
71396;DHT22;59888;55.814;37.132;2023-04-06T12:39:21;19.25;31.85
71396;DHT22;59888;55.814;37.132;2023-04-06T12:41:48;20.03;33.46
71396;DHT22;59888;55.814;37.132;2023-04-06T12:44:14;0.00;29.65
71396;DHT22;59888;55.814;37.132;2023-04-06T12:46:40;24.03;28.08
71396;DHT22;59888;55.814;37.132;2023-04-06T12:49:06;26.60;27.98
71396;DHT22;59888;55.814;37.132;2023-04-06T12:51:32;28.57;25.39
71396;DHT22;59888;55.814;37.132;2023-04-06T12:53:58;30.09;19.88
71396;DHT22;59888;55.814;37.132;2023-04-06T12:56:25;31.59;24.40
71396;DHT22;59888;55.814;37.132;2023-04-06T12:58:52;32.73;21.41
71396;DHT22;59888;55.814;37.132;2023-04-06T13:01:18;33.65;22.57
71396;DHT22;59888;55.814;37.132;2023-04-06T13:03:44;34.46;20.18
71396;DHT22;59888;55.814;37.132;2023-04-06T13:06:10;35.47;19.92
71396;DHT22;59888;55.814;37.132;2023-04-06T13:08:38;35.85;19.15
71396;DHT22;59888;55.814;37.132;2023-04-06T13:11:05;36.10;18.67
71396;DHT22;59888;55.814;37.132;2023-04-06T13:13:33;36.59;19.35
71396;DHT22;59888;55.814;37.132;2023-04-06T13:16:07;37.05;18.02
71396;DHT22;59888;55.814;37.132;2023-04-06T13:18:34;37.73;19.12
71396;DHT22;59888;55.814;37.132;2023-04-06T13:21:00;38.29;19.68
71396;DHT22;59888;55.814;37.132;2023-04-06T13:23:26;38.50;16.80
71396;DHT22;59888;55.814;37.132;2023-04-06T13:26:03;39.08;18.41
71396;DHT22;59888;55.814;37.132;2023-04-06T13:28:30;39.56;11.50
71396;DHT22;59888;55.814;37.132;2023-04-06T13:30:58;39.59;16.04
71396;DHT22;59888;55.814;37.132;2023-04-06T13:33:24;40.00;16.87
71396;DHT22;59888;55.814;37.132;2023-04-06T13:35:50;40.45;17.86
71396;DHT22;59888;55.814;37.132;2023-04-06T13:38:16;41.16;15.97
71396;DHT22;59888;55.814;37.132;2023-04-06T13:40:42;41.30;17.09
71396;DHT22;59888;55.814;37.132;2023-04-06T13:43:08;41.48;15.47
71396;DHT22;59888;55.814;37.132;2023-04-06T13:45:34;41.36;16.87
71396;DHT22;59888;55.814;37.132;2023-04-06T13:47:59;41.29;8.69
71396;DHT22;59888;55.814;37.132;2023-04-06T13:50:26;41.17;16.12
71396;DHT22;59888;55.814;37.132;2023-04-06T13:52:52;41.13;16.16
71396;DHT22;59888;55.814;37.132;2023-04-06T13:55:18;40.89;12.08
71396;DHT22;59888;55.814;37.132;2023-04-06T13:57:44;40.65;14.76
71396;DHT22;59888;55.814;37.132;2023-04-06T14:00:10;40.50;15.44
71396;DHT22;59888;55.814;37.132;2023-04-06T14:02:39;40.44;15.65
71396;DHT22;59888;55.814;37.132;2023-04-06T14:05:05;40.68;15.06
71396;DHT22;59888;55.814;37.132;2023-04-06T14:07:31;40.95;15.19
71396;DHT22;59888;55.814;37.132;2023-04-06T14:09:57;40.83;13.39
71396;DHT22;59888;55.814;37.132;2023-04-06T14:12:23;40.45;14.46
71396;DHT22;59888;55.814;37.132;2023-04-06T14:14:49;40.22;14.90
71396;DHT22;59888;55.814;37.132;2023-04-06T14:17:15;40.18;14.60
71396;DHT22;59888;55.814;37.132;2023-04-06T14:19:41;40.25;15.17
71396;DHT22;59888;55.814;37.132;2023-04-06T14:22:08;40.01;14.67
71396;DHT22;59888;55.814;37.132;2023-04-06T14:24:34;39.82;14.66
71396;DHT22;59888;55.814;37.132;2023-04-06T14:27:01;39.80;14.65
71396;DHT22;59888;55.814;37.132;2023-04-06T14:29:28;39.26;13.84
71396;DHT22;59888;55.814;37.132;2023-04-06T14:31:54;39.07;14.58
71396;DHT22;59888;55.814;37.132;2023-04-06T14:34:28;39.50;14.75
71396;DHT22;59888;55.814;37.132;2023-04-06T14:36:54;39.40;13.70
71396;DHT22;59888;55.814;37.132;2023-04-06T14:39:20;39.18;14.45
71396;DHT22;59888;55.814;37.132;2023-04-06T14:41:46;38.91;14.59
71396;DHT22;59888;55.814;37.132;2023-04-06T14:44:15;38.77;13.21
71396;DHT22;59888;55.814;37.132;2023-04-06T14:46:42;38.36;14.85
71396;DHT22;59888;55.814;37.132;2023-04-06T14:49:07;38.14;12.51
71396;DHT22;59888;55.814;37.132;2023-04-06T14:51:34;37.70;14.78
71396;DHT22;59888;55.814;37.132;2023-04-06T14:54:01;37.43;14.33
71396;DHT22;59888;55.814;37.132;2023-04-06T14:56:31;37.22;13.64
71396;DHT22;59888;55.814;37.132;2023-04-06T14:59:00;36.89;14.31
71396;DHT22;59888;55.814;37.132;2023-04-06T15:01:29;36.71;14.63
71396;DHT22;59888;55.814;37.132;2023-04-06T15:03:55;36.24;14.93
71396;DHT22;59888;55.814;37.132;2023-04-06T15:06:21;35.92;14.45
71396;DHT22;59888;55.814;37.132;2023-04-06T15:08:48;35.34;13.89
71396;DHT22;59888;55.814;37.132;2023-04-06T15:11:14;34.69;13.94
71396;DHT22;59888;55.814;37.132;2023-04-06T15:13:40;34.11;14.45
71396;DHT22;59888;55.814;37.132;2023-04-06T15:16:07;33.63;15.18
71396;DHT22;59888;55.814;37.132;2023-04-06T15:18:33;33.22;15.42
71396;DHT22;59888;55.814;37.132;2023-04-06T15:21:00;31.92;14.78
71396;DHT22;59888;55.814;37.132;2023-04-06T15:23:26;30.38;15.61
71396;DHT22;59888;55.814;37.132;2023-04-06T15:25:56;29.27;14.88
71396;DHT22;59888;55.814;37.132;2023-04-06T15:28:22;27.91;15.37
71396;DHT22;59888;55.814;37.132;2023-04-06T15:30:47;26.49;16.42
71396;DHT22;59888;55.814;37.132;2023-04-06T15:33:13;25.22;16.96